sensor_id;sensor_type;location;lat;lon;timestamp;P1;durP1;ratioP1;P2;durP2;ratioP2
32038;SDS011;18549;42.286;22.688;2023-09-18T00:00:49;12.40;;;9.73;;
32038;SDS011;18549;42.286;22.688;2023-09-18T00:03:16;12.68;;;11.48;;
32038;SDS011;18549;42.286;22.688;2023-09-18T00:05:44;13.27;;;11.23;;
32038;SDS011;18549;42.286;22.688;2023-09-18T00:08:11;17.33;;;12.07;;
32038;SDS011;18549;42.286;22.688;2023-09-18T00:10:37;17.60;;;11.88;;
32038;SDS011;18549;42.286;22.688;2023-09-18T00:13:06;16.17;;;11.23;;
32038;SDS011;18549;42.286;22.688;2023-09-18T00:15:33;15.95;;;10.55;;
32038;SDS011;18549;42.286;22.688;2023-09-18T00:17:59;11.07;;;9.70;;
32038;SDS011;18549;42.286;22.688;2023-09-18T00:20:26;13.55;;;10.02;;
32038;SDS011;18549;42.286;22.688;2023-09-18T00:22:53;11.40;;;10.05;;
32038;SDS011;18549;42.286;22.688;2023-09-18T00:25:20;15.98;;;10.85;;
32038;SDS011;18549;42.286;22.688;2023-09-18T00:27:47;13.48;;;10.43;;
32038;SDS011;18549;42.286;22.688;2023-09-18T00:30:15;15.98;;;10.57;;
32038;SDS011;18549;42.286;22.688;2023-09-18T00:32:42;19.58;;;10.98;;
32038;SDS011;18549;42.286;22.688;2023-09-18T00:35:09;16.33;;;9.73;;
32038;SDS011;18549;42.286;22.688;2023-09-18T00:37:35;22.17;;;12.07;;
32038;SDS011;18549;42.286;22.688;2023-09-18T00:40:05;14.75;;;11.48;;
32038;SDS011;18549;42.286;22.688;2023-09-18T00:42:32;11.73;;;10.40;;
32038;SDS011;18549;42.286;22.688;2023-09-18T00:44:59;11.07;;;9.82;;
32038;SDS011;18549;42.286;22.688;2023-09-18T00:47:27;12.82;;;10.23;;
32038;SDS011;18549;42.286;22.688;2023-09-18T00:49:54;13.50;;;12.15;;
32038;SDS011;18549;42.286;22.688;2023-09-18T00:52:22;16.90;;;10.57;;
32038;SDS011;18549;42.286;22.688;2023-09-18T00:54:50;14.07;;;11.00;;
32038;SDS011;18549;42.286;22.688;2023-09-18T00:57:17;17.35;;;13.38;;
32038;SDS011;18549;42.286;22.688;2023-09-18T00:59:44;22.90;;;15.63;;
32038;SDS011;18549;42.286;22.688;2023-09-18T01:02:11;25.08;;;17.40;;
32038;SDS011;18549;42.286;22.688;2023-09-18T01:04:39;19.75;;;16.27;;
32038;SDS011;18549;42.286;22.688;2023-09-18T01:07:09;21.47;;;13.53;;
32038;SDS011;18549;42.286;22.688;2023-09-18T01:09:36;15.15;;;12.75;;
32038;SDS011;18549;42.286;22.688;2023-09-18T01:12:04;17.37;;;12.75;;
32038;SDS011;18549;42.286;22.688;2023-09-18T01:14:42;15.25;;;11.07;;
32038;SDS011;18549;42.286;22.688;2023-09-18T01:17:16;17.95;;;10.23;;
32038;SDS011;18549;42.286;22.688;2023-09-18T01:19:46;14.27;;;10.88;;
32038;SDS011;18549;42.286;22.688;2023-09-18T01:22:13;15.13;;;10.27;;
32038;SDS011;18549;42.286;22.688;2023-09-18T01:24:43;18.08;;;11.45;;
32038;SDS011;18549;42.286;22.688;2023-09-18T01:27:12;16.33;;;11.93;;
32038;SDS011;18549;42.286;22.688;2023-09-18T01:29:42;13.07;;;9.90;;
32038;SDS011;18549;42.286;22.688;2023-09-18T01:32:08;17.65;;;11.48;;
32038;SDS011;18549;42.286;22.688;2023-09-18T01:34:37;12.43;;;10.48;;
32038;SDS011;18549;42.286;22.688;2023-09-18T01:37:06;16.65;;;10.82;;
32038;SDS011;18549;42.286;22.688;2023-09-18T01:39:35;22.90;;;10.75;;
32038;SDS011;18549;42.286;22.688;2023-09-18T01:42:03;17.55;;;13.18;;
32038;SDS011;18549;42.286;22.688;2023-09-18T01:44:32;25.05;;;11.40;;
32038;SDS011;18549;42.286;22.688;2023-09-18T01:46:59;19.65;;;11.77;;
32038;SDS011;18549;42.286;22.688;2023-09-18T01:49:28;18.23;;;11.07;;
32038;SDS011;18549;42.286;22.688;2023-09-18T01:51:56;15.18;;;10.98;;
32038;SDS011;18549;42.286;22.688;2023-09-18T01:54:22;16.58;;;11.40;;
32038;SDS011;18549;42.286;22.688;2023-09-18T01:56:49;17.02;;;10.70;;
32038;SDS011;18549;42.286;22.688;2023-09-18T01:59:18;16.33;;;9.60;;
32038;SDS011;18549;42.286;22.688;2023-09-18T02:01:45;20.70;;;11.18;;
32038;SDS011;18549;42.286;22.688;2023-09-18T02:04:11;15.27;;;10.25;;
32038;SDS011;18549;42.286;22.688;2023-09-18T02:06:38;16.25;;;10.27;;
32038;SDS011;18549;42.286;22.688;2023-09-18T02:09:05;11.80;;;10.27;;
32038;SDS011;18549;42.286;22.688;2023-09-18T02:11:33;10.27;;;9.07;;
32038;SDS011;18549;42.286;22.688;2023-09-18T02:14:01;12.88;;;9.82;;
32038;SDS011;18549;42.286;22.688;2023-09-18T02:16:30;18.90;;;10.07;;
32038;SDS011;18549;42.286;22.688;2023-09-18T02:18:57;18.37;;;11.80;;
32038;SDS011;18549;42.286;22.688;2023-09-18T02:21:24;14.98;;;11.25;;
32038;SDS011;18549;42.286;22.688;2023-09-18T02:23:51;15.82;;;10.77;;
32038;SDS011;18549;42.286;22.688;2023-09-18T02:26:18;17.67;;;10.80;;
32038;SDS011;18549;42.286;22.688;2023-09-18T02:28:45;18.42;;;11.73;;
32038;SDS011;18549;42.286;22.688;2023-09-18T02:31:12;15.40;;;11.98;;
32038;SDS011;18549;42.286;22.688;2023-09-18T02:33:40;24.58;;;12.77;;
32038;SDS011;18549;42.286;22.688;2023-09-18T02:36:08;23.08;;;12.65;;
32038;SDS011;18549;42.286;22.688;2023-09-18T02:38:34;17.17;;;12.27;;
32038;SDS011;18549;42.286;22.688;2023-09-18T02:41:01;20.62;;;13.57;;
32038;SDS011;18549;42.286;22.688;2023-09-18T02:43:28;22.60;;;12.70;;
32038;SDS011;18549;42.286;22.688;2023-09-18T02:45:55;26.15;;;13.15;;
32038;SDS011;18549;42.286;22.688;2023-09-18T02:48:22;25.08;;;13.80;;
32038;SDS011;18549;42.286;22.688;2023-09-18T02:50:50;16.92;;;11.57;;
32038;SDS011;18549;42.286;22.688;2023-09-18T02:53:17;16.08;;;11.90;;
32038;SDS011;18549;42.286;22.688;2023-09-18T02:55:45;22.25;;;11.82;;
32038;SDS011;18549;42.286;22.688;2023-09-18T02:58:12;16.00;;;10.30;;
32038;SDS011;18549;42.286;22.688;2023-09-18T03:00:40;19.55;;;11.43;;
32038;SDS011;18549;42.286;22.688;2023-09-18T03:03:08;15.85;;;10.25;;
32038;SDS011;18549;42.286;22.688;2023-09-18T03:05:35;14.25;;;10.73;;
32038;SDS011;18549;42.286;22.688;2023-09-18T03:08:03;13.48;;;10.52;;
32038;SDS011;18549;42.286;22.688;2023-09-18T03:10:32;21.48;;;12.73;;
32038;SDS011;18549;42.286;22.688;2023-09-18T03:13:00;20.98;;;16.77;;
32038;SDS011;18549;42.286;22.688;2023-09-18T03:15:27;23.12;;;18.23;;
32038;SDS011;18549;42.286;22.688;2023-09-18T03:17:54;23.23;;;19.12;;
32038;SDS011;18549;42.286;22.688;2023-09-18T03:20:22;22.23;;;15.35;;
32038;SDS011;18549;42.286;22.688;2023-09-18T03:22:50;19.62;;;16.42;;
32038;SDS011;18549;42.286;22.688;2023-09-18T03:25:18;20.77;;;12.70;;
32038;SDS011;18549;42.286;22.688;2023-09-18T03:27:45;23.23;;;14.90;;
32038;SDS011;18549;42.286;22.688;2023-09-18T03:30:12;20.10;;;15.80;;
32038;SDS011;18549;42.286;22.688;2023-09-18T03:32:40;20.35;;;13.57;;
32038;SDS011;18549;42.286;22.688;2023-09-18T03:35:07;16.40;;;13.48;;
32038;SDS011;18549;42.286;22.688;2023-09-18T03:37:40;14.52;;;12.80;;
32038;SDS011;18549;42.286;22.688;2023-09-18T03:40:08;16.08;;;14.00;;
32038;SDS011;18549;42.286;22.688;2023-09-18T03:42:36;19.17;;;12.65;;
32038;SDS011;18549;42.286;22.688;2023-09-18T03:45:04;19.35;;;11.63;;
32038;SDS011;18549;42.286;22.688;2023-09-18T03:47:33;17.67;;;10.40;;
32038;SDS011;18549;42.286;22.688;2023-09-18T03:50:00;20.62;;;11.12;;
32038;SDS011;18549;42.286;22.688;2023-09-18T03:52:26;13.30;;;9.63;;
32038;SDS011;18549;42.286;22.688;2023-09-18T03:54:53;10.73;;;9.73;;
32038;SDS011;18549;42.286;22.688;2023-09-18T03:57:20;12.30;;;8.52;;
32038;SDS011;18549;42.286;22.688;2023-09-18T03:59:48;11.55;;;9.55;;
32038;SDS011;18549;42.286;22.688;2023-09-18T04:02:15;14.02;;;10.00;;
32038;SDS011;18549;42.286;22.688;2023-09-18T04:04:41;14.25;;;11.23;;
32038;SDS011;18549;42.286;22.688;2023-09-18T04:07:08;16.40;;;11.12;;
32038;SDS011;18549;42.286;22.688;2023-09-18T04:09:35;18.60;;;10.88;;
32038;SDS011;18549;42.286;22.688;2023-09-18T04:12:02;14.57;;;11.10;;
32038;SDS011;18549;42.286;22.688;2023-09-18T04:14:31;21.33;;;11.82;;
32038;SDS011;18549;42.286;22.688;2023-09-18T04:16:59;16.98;;;11.32;;
32038;SDS011;18549;42.286;22.688;2023-09-18T04:19:26;18.83;;;11.25;;
32038;SDS011;18549;42.286;22.688;2023-09-18T04:21:52;15.60;;;11.38;;
32038;SDS011;18549;42.286;22.688;2023-09-18T04:24:19;18.67;;;11.88;;
32038;SDS011;18549;42.286;22.688;2023-09-18T04:26:46;23.45;;;12.57;;
32038;SDS011;18549;42.286;22.688;2023-09-18T04:29:13;20.83;;;11.15;;
32038;SDS011;18549;42.286;22.688;2023-09-18T04:31:39;15.95;;;11.77;;
32038;SDS011;18549;42.286;22.688;2023-09-18T04:34:07;16.23;;;12.18;;
32038;SDS011;18549;42.286;22.688;2023-09-18T04:36:35;17.20;;;12.10;;
32038;SDS011;18549;42.286;22.688;2023-09-18T04:39:02;13.90;;;12.50;;
32038;SDS011;18549;42.286;22.688;2023-09-18T04:41:29;18.98;;;11.95;;
32038;SDS011;18549;42.286;22.688;2023-09-18T04:43:56;19.85;;;13.62;;
32038;SDS011;18549;42.286;22.688;2023-09-18T04:46:23;14.55;;;12.18;;
32038;SDS011;18549;42.286;22.688;2023-09-18T04:48:50;17.52;;;11.40;;
32038;SDS011;18549;42.286;22.688;2023-09-18T04:51:18;19.75;;;13.18;;
32038;SDS011;18549;42.286;22.688;2023-09-18T04:53:44;16.40;;;13.45;;
32038;SDS011;18549;42.286;22.688;2023-09-18T04:56:11;17.23;;;12.63;;
32038;SDS011;18549;42.286;22.688;2023-09-18T04:58:38;18.48;;;12.50;;
32038;SDS011;18549;42.286;22.688;2023-09-18T05:01:05;17.62;;;12.23;;
32038;SDS011;18549;42.286;22.688;2023-09-18T05:03:33;22.65;;;13.93;;
32038;SDS011;18549;42.286;22.688;2023-09-18T05:06:00;17.45;;;13.45;;
32038;SDS011;18549;42.286;22.688;2023-09-18T05:08:29;19.92;;;13.70;;
32038;SDS011;18549;42.286;22.688;2023-09-18T05:10:56;19.00;;;14.85;;
32038;SDS011;18549;42.286;22.688;2023-09-18T05:13:23;21.80;;;15.23;;
32038;SDS011;18549;42.286;22.688;2023-09-18T05:15:50;21.58;;;16.08;;
32038;SDS011;18549;42.286;22.688;2023-09-18T05:18:16;21.30;;;16.25;;
32038;SDS011;18549;42.286;22.688;2023-09-18T05:20:43;19.90;;;14.32;;
32038;SDS011;18549;42.286;22.688;2023-09-18T05:23:10;20.58;;;14.23;;
32038;SDS011;18549;42.286;22.688;2023-09-18T05:25:38;17.80;;;14.55;;
32038;SDS011;18549;42.286;22.688;2023-09-18T05:28:07;19.77;;;14.73;;
32038;SDS011;18549;42.286;22.688;2023-09-18T05:30:34;16.85;;;13.45;;
32038;SDS011;18549;42.286;22.688;2023-09-18T05:33:03;24.05;;;13.73;;
32038;SDS011;18549;42.286;22.688;2023-09-18T05:35:32;18.02;;;13.50;;
32038;SDS011;18549;42.286;22.688;2023-09-18T05:38:01;22.60;;;14.50;;
32038;SDS011;18549;42.286;22.688;2023-09-18T05:40:28;21.58;;;16.15;;
32038;SDS011;18549;42.286;22.688;2023-09-18T05:42:56;19.62;;;13.10;;
32038;SDS011;18549;42.286;22.688;2023-09-18T05:45:23;23.92;;;12.95;;
32038;SDS011;18549;42.286;22.688;2023-09-18T05:47:51;21.27;;;12.88;;
32038;SDS011;18549;42.286;22.688;2023-09-18T05:50:19;20.45;;;13.32;;
32038;SDS011;18549;42.286;22.688;2023-09-18T05:52:46;21.40;;;13.18;;
32038;SDS011;18549;42.286;22.688;2023-09-18T05:55:14;22.58;;;14.27;;
32038;SDS011;18549;42.286;22.688;2023-09-18T05:57:41;16.37;;;12.77;;
32038;SDS011;18549;42.286;22.688;2023-09-18T06:00:09;17.62;;;13.45;;
32038;SDS011;18549;42.286;22.688;2023-09-18T06:02:38;18.03;;;13.30;;
32038;SDS011;18549;42.286;22.688;2023-09-18T06:05:05;16.65;;;13.35;;
32038;SDS011;18549;42.286;22.688;2023-09-18T06:07:36;19.25;;;13.18;;
32038;SDS011;18549;42.286;22.688;2023-09-18T06:10:03;16.05;;;13.45;;
32038;SDS011;18549;42.286;22.688;2023-09-18T06:12:30;16.55;;;11.55;;
32038;SDS011;18549;42.286;22.688;2023-09-18T06:14:57;23.23;;;14.48;;
32038;SDS011;18549;42.286;22.688;2023-09-18T06:17:25;15.90;;;14.27;;
32038;SDS011;18549;42.286;22.688;2023-09-18T06:19:52;19.12;;;13.25;;
32038;SDS011;18549;42.286;22.688;2023-09-18T06:22:20;19.87;;;12.77;;
32038;SDS011;18549;42.286;22.688;2023-09-18T06:24:47;17.60;;;12.43;;
32038;SDS011;18549;42.286;22.688;2023-09-18T06:27:14;30.58;;;14.75;;
32038;SDS011;18549;42.286;22.688;2023-09-18T06:29:41;19.50;;;13.52;;
32038;SDS011;18549;42.286;22.688;2023-09-18T06:32:08;17.75;;;13.90;;
32038;SDS011;18549;42.286;22.688;2023-09-18T06:34:36;17.12;;;13.68;;
32038;SDS011;18549;42.286;22.688;2023-09-18T06:37:03;15.43;;;13.35;;
32038;SDS011;18549;42.286;22.688;2023-09-18T06:39:31;22.08;;;14.30;;
32038;SDS011;18549;42.286;22.688;2023-09-18T06:41:58;21.35;;;14.98;;
32038;SDS011;18549;42.286;22.688;2023-09-18T06:44:25;17.50;;;14.10;;
32038;SDS011;18549;42.286;22.688;2023-09-18T06:46:51;21.33;;;15.63;;
32038;SDS011;18549;42.286;22.688;2023-09-18T06:49:18;22.27;;;14.93;;
32038;SDS011;18549;42.286;22.688;2023-09-18T06:51:47;25.35;;;14.52;;
32038;SDS011;18549;42.286;22.688;2023-09-18T06:54:13;18.52;;;15.38;;
32038;SDS011;18549;42.286;22.688;2023-09-18T06:56:40;16.98;;;14.40;;
32038;SDS011;18549;42.286;22.688;2023-09-18T06:59:09;25.35;;;15.80;;
32038;SDS011;18549;42.286;22.688;2023-09-18T07:01:36;21.58;;;13.55;;
32038;SDS011;18549;42.286;22.688;2023-09-18T07:04:04;18.30;;;15.05;;
32038;SDS011;18549;42.286;22.688;2023-09-18T07:06:31;19.52;;;15.32;;
32038;SDS011;18549;42.286;22.688;2023-09-18T07:08:59;20.12;;;14.70;;
32038;SDS011;18549;42.286;22.688;2023-09-18T07:11:28;19.00;;;14.07;;
32038;SDS011;18549;42.286;22.688;2023-09-18T07:13:55;22.37;;;15.60;;
32038;SDS011;18549;42.286;22.688;2023-09-18T07:16:23;18.40;;;13.95;;
32038;SDS011;18549;42.286;22.688;2023-09-18T07:18:50;23.67;;;16.02;;
32038;SDS011;18549;42.286;22.688;2023-09-18T07:21:17;23.20;;;16.70;;
32038;SDS011;18549;42.286;22.688;2023-09-18T07:23:45;18.62;;;15.00;;
32038;SDS011;18549;42.286;22.688;2023-09-18T07:26:14;22.27;;;15.45;;
32038;SDS011;18549;42.286;22.688;2023-09-18T07:28:40;23.58;;;15.15;;
32038;SDS011;18549;42.286;22.688;2023-09-18T07:31:09;21.08;;;15.23;;
32038;SDS011;18549;42.286;22.688;2023-09-18T07:33:39;25.02;;;16.60;;
32038;SDS011;18549;42.286;22.688;2023-09-18T07:36:06;19.33;;;13.88;;
32038;SDS011;18549;42.286;22.688;2023-09-18T07:38:35;22.55;;;15.93;;
32038;SDS011;18549;42.286;22.688;2023-09-18T07:41:01;18.08;;;16.25;;
32038;SDS011;18549;42.286;22.688;2023-09-18T07:43:29;18.45;;;16.10;;
32038;SDS011;18549;42.286;22.688;2023-09-18T07:45:56;17.80;;;15.95;;
32038;SDS011;18549;42.286;22.688;2023-09-18T07:48:24;22.23;;;14.98;;
32038;SDS011;18549;42.286;22.688;2023-09-18T07:50:51;20.85;;;18.48;;
32038;SDS011;18549;42.286;22.688;2023-09-18T07:53:20;29.67;;;19.17;;
32038;SDS011;18549;42.286;22.688;2023-09-18T07:55:47;23.05;;;17.80;;
32038;SDS011;18549;42.286;22.688;2023-09-18T07:58:15;25.00;;;16.15;;
32038;SDS011;18549;42.286;22.688;2023-09-18T08:00:43;29.42;;;17.12;;
32038;SDS011;18549;42.286;22.688;2023-09-18T08:03:10;27.10;;;17.80;;
32038;SDS011;18549;42.286;22.688;2023-09-18T08:05:37;21.48;;;17.55;;
32038;SDS011;18549;42.286;22.688;2023-09-18T08:08:04;23.27;;;17.10;;
32038;SDS011;18549;42.286;22.688;2023-09-18T08:10:31;19.65;;;16.85;;
32038;SDS011;18549;42.286;22.688;2023-09-18T08:12:58;22.80;;;17.75;;
32038;SDS011;18549;42.286;22.688;2023-09-18T08:15:25;19.75;;;17.23;;
32038;SDS011;18549;42.286;22.688;2023-09-18T08:17:53;20.12;;;17.65;;
32038;SDS011;18549;42.286;22.688;2023-09-18T08:20:20;20.30;;;16.30;;
32038;SDS011;18549;42.286;22.688;2023-09-18T08:22:47;22.37;;;17.77;;
32038;SDS011;18549;42.286;22.688;2023-09-18T08:25:15;18.87;;;16.87;;
32038;SDS011;18549;42.286;22.688;2023-09-18T08:27:42;29.58;;;18.48;;
32038;SDS011;18549;42.286;22.688;2023-09-18T08:30:09;27.67;;;18.77;;
32038;SDS011;18549;42.286;22.688;2023-09-18T08:32:36;21.08;;;18.00;;
32038;SDS011;18549;42.286;22.688;2023-09-18T08:35:05;21.87;;;17.85;;
32038;SDS011;18549;42.286;22.688;2023-09-18T08:37:33;19.40;;;17.35;;
32038;SDS011;18549;42.286;22.688;2023-09-18T08:39:59;24.77;;;16.48;;
32038;SDS011;18549;42.286;22.688;2023-09-18T08:42:31;23.75;;;16.73;;
32038;SDS011;18549;42.286;22.688;2023-09-18T08:45:01;24.15;;;19.45;;
32038;SDS011;18549;42.286;22.688;2023-09-18T08:47:28;19.75;;;17.25;;
32038;SDS011;18549;42.286;22.688;2023-09-18T08:49:56;24.15;;;16.65;;
32038;SDS011;18549;42.286;22.688;2023-09-18T08:52:26;20.85;;;16.42;;
32038;SDS011;18549;42.286;22.688;2023-09-18T08:54:54;18.37;;;16.30;;
32038;SDS011;18549;42.286;22.688;2023-09-18T08:57:21;18.52;;;15.65;;
32038;SDS011;18549;42.286;22.688;2023-09-18T08:59:50;24.10;;;17.52;;
32038;SDS011;18549;42.286;22.688;2023-09-18T09:02:20;18.02;;;15.35;;
32038;SDS011;18549;42.286;22.688;2023-09-18T09:04:46;28.00;;;17.70;;
32038;SDS011;18549;42.286;22.688;2023-09-18T09:07:13;20.42;;;16.45;;
32038;SDS011;18549;42.286;22.688;2023-09-18T09:09:41;21.70;;;17.30;;
32038;SDS011;18549;42.286;22.688;2023-09-18T09:12:08;20.48;;;17.42;;
32038;SDS011;18549;42.286;22.688;2023-09-18T09:14:35;22.08;;;17.37;;
32038;SDS011;18549;42.286;22.688;2023-09-18T09:17:03;19.67;;;17.50;;
32038;SDS011;18549;42.286;22.688;2023-09-18T09:19:31;17.33;;;15.63;;
32038;SDS011;18549;42.286;22.688;2023-09-18T09:22:01;25.20;;;17.25;;
32038;SDS011;18549;42.286;22.688;2023-09-18T09:24:35;26.12;;;15.85;;
32038;SDS011;18549;42.286;22.688;2023-09-18T09:27:04;20.88;;;16.40;;
32038;SDS011;18549;42.286;22.688;2023-09-18T09:29:31;20.65;;;16.20;;
32038;SDS011;18549;42.286;22.688;2023-09-18T09:32:11;22.60;;;17.33;;
32038;SDS011;18549;42.286;22.688;2023-09-18T09:34:40;23.40;;;17.33;;
32038;SDS011;18549;42.286;22.688;2023-09-18T09:37:07;17.48;;;15.48;;
32038;SDS011;18549;42.286;22.688;2023-09-18T09:39:34;20.48;;;17.23;;
32038;SDS011;18549;42.286;22.688;2023-09-18T09:42:15;18.60;;;16.45;;
32038;SDS011;18549;42.286;22.688;2023-09-18T09:44:55;19.77;;;16.17;;
32038;SDS011;18549;42.286;22.688;2023-09-18T09:47:29;16.25;;;13.60;;
32038;SDS011;18549;42.286;22.688;2023-09-18T09:49:59;19.98;;;13.80;;
32038;SDS011;18549;42.286;22.688;2023-09-18T09:52:33;17.55;;;15.43;;
32038;SDS011;18549;42.286;22.688;2023-09-18T09:54:59;16.55;;;13.45;;
32038;SDS011;18549;42.286;22.688;2023-09-18T09:57:30;16.40;;;13.07;;
32038;SDS011;18549;42.286;22.688;2023-09-18T10:00:02;17.10;;;12.68;;
32038;SDS011;18549;42.286;22.688;2023-09-18T10:02:46;15.07;;;12.77;;
32038;SDS011;18549;42.286;22.688;2023-09-18T10:05:15;16.58;;;13.98;;
32038;SDS011;18549;42.286;22.688;2023-09-18T10:07:45;15.40;;;13.77;;
32038;SDS011;18549;42.286;22.688;2023-09-18T10:10:12;18.85;;;14.68;;
32038;SDS011;18549;42.286;22.688;2023-09-18T10:12:41;24.23;;;15.07;;
32038;SDS011;18549;42.286;22.688;2023-09-18T10:15:10;19.80;;;14.32;;
32038;SDS011;18549;42.286;22.688;2023-09-18T10:17:41;16.15;;;13.70;;
32038;SDS011;18549;42.286;22.688;2023-09-18T10:20:12;16.50;;;13.90;;
32038;SDS011;18549;42.286;22.688;2023-09-18T10:22:46;17.52;;;13.43;;
32038;SDS011;18549;42.286;22.688;2023-09-18T10:25:15;16.27;;;14.57;;
32038;SDS011;18549;42.286;22.688;2023-09-18T10:27:46;16.23;;;13.48;;
32038;SDS011;18549;42.286;22.688;2023-09-18T10:30:15;18.87;;;14.32;;
32038;SDS011;18549;42.286;22.688;2023-09-18T10:32:43;16.77;;;14.73;;
32038;SDS011;18549;42.286;22.688;2023-09-18T10:35:13;19.45;;;15.38;;
32038;SDS011;18549;42.286;22.688;2023-09-18T10:37:41;17.98;;;13.30;;
32038;SDS011;18549;42.286;22.688;2023-09-18T10:40:08;18.05;;;14.13;;
32038;SDS011;18549;42.286;22.688;2023-09-18T10:42:37;15.48;;;13.07;;
32038;SDS011;18549;42.286;22.688;2023-09-18T10:45:06;18.25;;;13.60;;
32038;SDS011;18549;42.286;22.688;2023-09-18T10:47:35;17.92;;;13.60;;
32038;SDS011;18549;42.286;22.688;2023-09-18T10:50:04;19.73;;;15.45;;
32038;SDS011;18549;42.286;22.688;2023-09-18T10:52:33;17.50;;;15.60;;
32038;SDS011;18549;42.286;22.688;2023-09-18T10:55:01;15.75;;;12.52;;
32038;SDS011;18549;42.286;22.688;2023-09-18T10:57:32;17.10;;;14.38;;
32038;SDS011;18549;42.286;22.688;2023-09-18T11:00:00;20.83;;;13.32;;
32038;SDS011;18549;42.286;22.688;2023-09-18T11:02:40;16.92;;;13.13;;
32038;SDS011;18549;42.286;22.688;2023-09-18T11:05:07;15.10;;;13.38;;
32038;SDS011;18549;42.286;22.688;2023-09-18T11:07:34;18.58;;;12.98;;
32038;SDS011;18549;42.286;22.688;2023-09-18T11:10:00;18.30;;;13.05;;
32038;SDS011;18549;42.286;22.688;2023-09-18T11:12:51;16.00;;;13.65;;
32038;SDS011;18549;42.286;22.688;2023-09-18T11:15:25;15.00;;;12.75;;
32038;SDS011;18549;42.286;22.688;2023-09-18T11:17:59;16.27;;;12.18;;
32038;SDS011;18549;42.286;22.688;2023-09-18T11:20:28;17.65;;;13.30;;
32038;SDS011;18549;42.286;22.688;2023-09-18T11:22:55;18.90;;;13.07;;
32038;SDS011;18549;42.286;22.688;2023-09-18T11:25:31;18.65;;;12.75;;
32038;SDS011;18549;42.286;22.688;2023-09-18T11:28:02;22.42;;;13.02;;
32038;SDS011;18549;42.286;22.688;2023-09-18T11:30:31;16.25;;;13.02;;
32038;SDS011;18549;42.286;22.688;2023-09-18T11:33:02;14.27;;;12.37;;
32038;SDS011;18549;42.286;22.688;2023-09-18T11:35:31;15.30;;;12.37;;
32038;SDS011;18549;42.286;22.688;2023-09-18T11:38:05;16.98;;;13.43;;
32038;SDS011;18549;42.286;22.688;2023-09-18T11:40:33;15.07;;;11.45;;
32038;SDS011;18549;42.286;22.688;2023-09-18T11:43:19;15.50;;;12.60;;
32038;SDS011;18549;42.286;22.688;2023-09-18T11:45:55;19.60;;;11.40;;
32038;SDS011;18549;42.286;22.688;2023-09-18T11:48:24;13.00;;;11.43;;
32038;SDS011;18549;42.286;22.688;2023-09-18T11:50:54;14.43;;;12.70;;
32038;SDS011;18549;42.286;22.688;2023-09-18T11:53:23;14.27;;;10.60;;
32038;SDS011;18549;42.286;22.688;2023-09-18T11:55:51;12.70;;;11.35;;
32038;SDS011;18549;42.286;22.688;2023-09-18T11:58:18;16.08;;;11.55;;
32038;SDS011;18549;42.286;22.688;2023-09-18T12:00:48;20.05;;;11.88;;
32038;SDS011;18549;42.286;22.688;2023-09-18T12:03:16;15.63;;;11.50;;
32038;SDS011;18549;42.286;22.688;2023-09-18T12:05:51;14.77;;;11.27;;
32038;SDS011;18549;42.286;22.688;2023-09-18T12:08:19;18.52;;;11.88;;
32038;SDS011;18549;42.286;22.688;2023-09-18T12:10:50;20.67;;;11.48;;
32038;SDS011;18549;42.286;22.688;2023-09-18T12:13:16;16.70;;;9.63;;
32038;SDS011;18549;42.286;22.688;2023-09-18T12:15:43;12.82;;;10.70;;
32038;SDS011;18549;42.286;22.688;2023-09-18T12:18:10;13.23;;;9.77;;
32038;SDS011;18549;42.286;22.688;2023-09-18T12:20:44;14.03;;;9.30;;
32038;SDS011;18549;42.286;22.688;2023-09-18T12:23:13;14.00;;;9.45;;
32038;SDS011;18549;42.286;22.688;2023-09-18T12:25:40;16.90;;;10.20;;
32038;SDS011;18549;42.286;22.688;2023-09-18T12:28:11;13.93;;;10.73;;
32038;SDS011;18549;42.286;22.688;2023-09-18T12:30:40;14.27;;;10.30;;
32038;SDS011;18549;42.286;22.688;2023-09-18T12:33:07;12.23;;;10.90;;
32038;SDS011;18549;42.286;22.688;2023-09-18T12:35:34;17.05;;;11.75;;
32038;SDS011;18549;42.286;22.688;2023-09-18T12:38:01;16.60;;;10.70;;
32038;SDS011;18549;42.286;22.688;2023-09-18T12:40:31;15.55;;;10.50;;
32038;SDS011;18549;42.286;22.688;2023-09-18T12:42:59;13.43;;;9.40;;
32038;SDS011;18549;42.286;22.688;2023-09-18T12:45:28;15.82;;;10.27;;
32038;SDS011;18549;42.286;22.688;2023-09-18T12:47:55;12.23;;;9.95;;
32038;SDS011;18549;42.286;22.688;2023-09-18T12:50:24;18.60;;;9.55;;
32038;SDS011;18549;42.286;22.688;2023-09-18T12:52:51;11.40;;;10.23;;
32038;SDS011;18549;42.286;22.688;2023-09-18T12:55:21;15.77;;;9.02;;
32038;SDS011;18549;42.286;22.688;2023-09-18T12:57:51;11.57;;;10.32;;
32038;SDS011;18549;42.286;22.688;2023-09-18T13:00:18;13.05;;;10.05;;
32038;SDS011;18549;42.286;22.688;2023-09-18T13:02:48;10.60;;;9.30;;
32038;SDS011;18549;42.286;22.688;2023-09-18T13:05:20;11.40;;;10.07;;
32038;SDS011;18549;42.286;22.688;2023-09-18T13:07:50;11.95;;;10.73;;
32038;SDS011;18549;42.286;22.688;2023-09-18T13:10:20;12.85;;;10.45;;
32038;SDS011;18549;42.286;22.688;2023-09-18T13:12:47;13.80;;;10.18;;
32038;SDS011;18549;42.286;22.688;2023-09-18T13:15:25;10.70;;;9.52;;
32038;SDS011;18549;42.286;22.688;2023-09-18T13:17:53;12.82;;;10.38;;
32038;SDS011;18549;42.286;22.688;2023-09-18T13:20:21;15.45;;;9.82;;
32038;SDS011;18549;42.286;22.688;2023-09-18T13:22:50;15.18;;;10.43;;
32038;SDS011;18549;42.286;22.688;2023-09-18T13:25:20;13.77;;;10.93;;
32038;SDS011;18549;42.286;22.688;2023-09-18T13:27:47;16.90;;;9.57;;
32038;SDS011;18549;42.286;22.688;2023-09-18T13:30:14;14.43;;;10.52;;
32038;SDS011;18549;42.286;22.688;2023-09-18T13:32:43;10.57;;;9.13;;
32038;SDS011;18549;42.286;22.688;2023-09-18T13:35:10;10.93;;;9.05;;
32038;SDS011;18549;42.286;22.688;2023-09-18T13:37:39;11.77;;;9.23;;
32038;SDS011;18549;42.286;22.688;2023-09-18T13:40:06;12.02;;;8.55;;
32038;SDS011;18549;42.286;22.688;2023-09-18T13:42:34;17.48;;;8.38;;
32038;SDS011;18549;42.286;22.688;2023-09-18T13:45:01;14.75;;;9.40;;
32038;SDS011;18549;42.286;22.688;2023-09-18T13:47:29;10.88;;;8.90;;
32038;SDS011;18549;42.286;22.688;2023-09-18T13:49:59;14.40;;;9.05;;
32038;SDS011;18549;42.286;22.688;2023-09-18T13:52:25;9.65;;;8.65;;
32038;SDS011;18549;42.286;22.688;2023-09-18T13:54:52;9.40;;;8.40;;
32038;SDS011;18549;42.286;22.688;2023-09-18T13:57:19;11.02;;;9.00;;
32038;SDS011;18549;42.286;22.688;2023-09-18T13:59:47;10.80;;;8.98;;
32038;SDS011;18549;42.286;22.688;2023-09-18T14:02:15;14.95;;;9.18;;
32038;SDS011;18549;42.286;22.688;2023-09-18T14:04:42;9.48;;;8.23;;
32038;SDS011;18549;42.286;22.688;2023-09-18T14:07:10;9.88;;;7.75;;
32038;SDS011;18549;42.286;22.688;2023-09-18T14:09:38;24.30;;;10.82;;
32038;SDS011;18549;42.286;22.688;2023-09-18T14:12:05;21.23;;;10.32;;
32038;SDS011;18549;42.286;22.688;2023-09-18T14:14:33;9.48;;;8.40;;
32038;SDS011;18549;42.286;22.688;2023-09-18T14:17:01;14.38;;;10.07;;